Terminal Aerodrome Forecast
Issued by NWS Pendleton, OR

Home | Current Version | Previous Version | Text Only | Print | Product List | Glossary On
Versions: 1 2 3 4 5 6 7 8 9 10 11 12 13 14 15 16
000
FTUS46 KPDT 280700 AAA
TAFPDT
TAF AMD
KPDT 280702Z 2807/2906 26030G40KT P6SM SCT080
     FM281000 26014KT 5SM -SHRA BR SCT015 OVC030
     FM281500 27015KT 5SM -RASN BR SCT010 OVC020
     FM281800 28009KT P6SM SCT020 BKN040
     FM290200 16007KT P6SM SCT030 BKN050=

USA.gov is the U.S. government's official web portal to all federal, state and local government web resources and services.